TAF and METAR

METAR for Pajala Airport

ESUP 251150Z AUTO 31002KT 8000 -SN OVC006/// M14/M16 Q1002
Report created 25. jan 12:50
report generated by an automatic observation system. wind 2 knots from NW (310°) visibility 8000 meters light snow overcast at 600 feet Temperature -14° with dewpoint at -16° (Humidity 84.74%) Pressure 1002 hPa
No TAF available for Pajala Airport
Pajala Airport in Sweden at 165m

Latest 5 airports